createdAt,value
2022-12-15T00:02:10.282Z,45.47
2022-12-15T00:04:55.536Z,42.17
2022-12-15T00:07:40.586Z,44.53
2022-12-15T00:10:25.968Z,41.65
2022-12-15T00:13:10.877Z,45.58
2022-12-15T00:15:55.845Z,45.20
2022-12-15T00:18:40.941Z,45.58
2022-12-15T00:21:25.884Z,43.45
2022-12-15T00:24:10.916Z,41.88
2022-12-15T00:26:56.086Z,41.20
2022-12-15T00:29:41.215Z,42.00
2022-12-15T00:32:26.325Z,41.17
2022-12-15T00:35:11.388Z,41.95
2022-12-15T00:37:56.530Z,41.83
2022-12-15T00:40:23.027Z,42.63
2022-12-15T00:42:49.834Z,42.13
2022-12-15T00:45:16.471Z,41.58
2022-12-15T00:47:42.964Z,41.90
2022-12-15T00:50:27.988Z,43.03
2022-12-15T00:53:13.220Z,41.83
2022-12-15T00:55:58.385Z,41.08
2022-12-15T00:58:43.374Z,42.80
2022-12-15T01:01:29.047Z,40.05
2022-12-15T01:04:14.176Z,41.28
2022-12-15T01:06:59.519Z,41.38
2022-12-15T01:09:44.631Z,40.92
2022-12-15T01:12:29.842Z,44.92
2022-12-15T01:15:15.043Z,42.75
2022-12-15T01:17:59.973Z,42.35
2022-12-15T01:20:26.487Z,43.10
2022-12-15T01:22:54.866Z,45.78
2022-12-15T01:25:24.433Z,45.28
2022-12-15T01:27:51.280Z,49.08
2022-12-15T01:30:20.399Z,47.38
2022-12-15T01:32:46.936Z,49.17
2022-12-15T01:35:13.700Z,47.90
2022-12-15T01:37:40.211Z,47.55
2022-12-15T01:40:27.993Z,50.97
2022-12-15T01:42:54.556Z,47.75
2022-12-15T01:45:23.733Z,49.13
2022-12-15T01:48:05.539Z,47.33
2022-12-15T01:50:39.926Z,46.65
2022-12-15T01:53:06.684Z,47.25
2022-12-15T01:55:33.342Z,45.53
2022-12-15T01:58:04.099Z,46.47
2022-12-15T02:02:57.822Z,44.70
2022-12-15T02:05:24.710Z,47.72
2022-12-15T02:07:51.252Z,46.55
2022-12-15T02:10:17.855Z,46.83
2022-12-15T02:12:54.127Z,44.72
2022-12-15T02:15:51.273Z,45.72
2022-12-15T02:18:43.470Z,44.67
2022-12-15T02:21:24.661Z,44.72
2022-12-15T02:24:11.222Z,46.22
2022-12-15T02:27:15.526Z,45.42
2022-12-15T02:30:19.518Z,45.10
2022-12-15T02:33:11.660Z,45.88
2022-12-15T02:36:00.298Z,46.25
2022-12-15T02:38:36.011Z,45.17
2022-12-15T02:41:05.545Z,43.55
2022-12-15T02:43:34.595Z,46.05
2022-12-15T02:46:13.102Z,42.38
2022-12-15T02:49:12.368Z,43.33
2022-12-15T02:52:16.344Z,41.38
2022-12-15T02:55:20.718Z,41.63
2022-12-15T02:57:52.913Z,40.45
2022-12-15T03:00:19.569Z,42.45
2022-12-15T03:02:50.207Z,41.60
2022-12-15T03:07:43.445Z,39.83
2022-12-15T03:10:12.409Z,38.25
2022-12-15T03:12:38.963Z,39.13
2022-12-15T03:15:06.137Z,40.78
2022-12-15T03:17:32.707Z,40.13
2022-12-15T03:19:59.251Z,41.38
2022-12-15T03:22:25.791Z,38.45
2022-12-15T03:24:52.269Z,38.75
2022-12-15T03:27:18.790Z,37.60
2022-12-15T03:29:45.385Z,38.05
2022-12-15T03:32:11.952Z,37.58
2022-12-15T03:34:38.569Z,36.95
2022-12-15T03:37:05.098Z,39.00
2022-12-15T03:39:31.661Z,38.67
2022-12-15T03:41:58.207Z,38.90
2022-12-15T03:44:24.699Z,42.03
2022-12-15T03:46:51.243Z,39.13
2022-12-15T03:49:17.779Z,38.83
2022-12-15T03:51:45.123Z,35.92
2022-12-15T03:54:14.778Z,38.75
2022-12-15T03:56:41.360Z,39.33
2022-12-15T03:59:07.868Z,38.05
2022-12-15T04:01:35.923Z,36.85
2022-12-15T04:04:04.330Z,38.50
2022-12-15T04:06:31.296Z,38.72
2022-12-15T04:08:57.858Z,39.15
2022-12-15T04:11:24.377Z,39.75
2022-12-15T04:13:50.902Z,38.92
2022-12-15T04:16:20.106Z,38.13
2022-12-15T04:18:47.284Z,39.67
2022-12-15T04:21:13.884Z,39.70
2022-12-15T04:23:58.960Z,40.95
2022-12-15T04:26:43.966Z,40.70
2022-12-15T04:29:28.889Z,40.55
2022-12-15T04:32:14.099Z,38.88
2022-12-15T04:34:59.344Z,39.22
2022-12-15T04:37:44.637Z,39.40
2022-12-15T04:40:29.729Z,35.47
2022-12-15T04:43:14.854Z,34.30
2022-12-15T04:46:00.126Z,38.33
2022-12-15T04:48:45.444Z,37.53
2022-12-15T04:51:30.534Z,38.80
2022-12-15T04:54:15.624Z,44.50
2022-12-15T04:57:00.784Z,45.03
2022-12-15T04:59:45.787Z,37.85
2022-12-15T05:02:31.047Z,39.03
2022-12-15T05:05:16.442Z,39.13
2022-12-15T05:08:01.621Z,36.65
2022-12-15T05:10:47.000Z,37.92
2022-12-15T05:13:32.535Z,42.15
2022-12-15T05:16:17.924Z,53.35
2022-12-15T05:19:03.277Z,32.38
2022-12-15T05:21:48.179Z,60.28
2022-12-15T05:24:33.133Z,51.85
2022-12-15T05:27:17.929Z,51.08
2022-12-15T05:30:03.125Z,42.83
2022-12-15T05:32:32.502Z,40.10
2022-12-15T05:35:01.041Z,38.78
2022-12-15T05:37:27.559Z,38.05
2022-12-15T05:39:54.138Z,40.28
2022-12-15T05:42:20.882Z,38.65
2022-12-15T05:44:48.011Z,37.95
2022-12-15T05:47:16.389Z,38.55
2022-12-15T05:49:42.958Z,38.00
2022-12-15T05:52:09.588Z,34.60
2022-12-15T05:54:36.109Z,36.00
2022-12-15T05:57:02.622Z,34.45
2022-12-15T05:59:29.166Z,37.22
2022-12-15T06:01:56.023Z,39.13
2022-12-15T06:04:23.019Z,36.55
2022-12-15T06:06:49.640Z,36.45
2022-12-15T06:09:16.394Z,32.42
2022-12-15T06:11:43.531Z,35.65
2022-12-15T06:14:10.384Z,33.78
2022-12-15T06:16:42.588Z,31.77
2022-12-15T06:19:10.939Z,33.22
2022-12-15T06:21:37.531Z,34.42
2022-12-15T06:24:05.487Z,34.78
2022-12-15T06:26:35.136Z,34.00
2022-12-15T06:29:02.940Z,33.45
2022-12-15T06:31:30.650Z,32.72
2022-12-15T06:34:01.673Z,32.95
2022-12-15T06:36:30.758Z,28.20
2022-12-15T06:39:04.707Z,29.58
2022-12-15T06:41:31.614Z,32.58
2022-12-15T06:43:58.748Z,33.40
2022-12-15T06:46:26.112Z,29.70
2022-12-15T06:48:53.324Z,32.35
2022-12-15T06:51:20.440Z,28.00
2022-12-15T06:53:50.973Z,31.83
2022-12-15T06:56:19.442Z,31.50
2022-12-15T06:58:49.249Z,31.92
2022-12-15T07:01:16.236Z,33.90
2022-12-15T07:03:43.184Z,33.72
2022-12-15T07:06:11.949Z,33.30
2022-12-15T07:08:41.672Z,32.13
2022-12-15T07:11:10.934Z,30.98
2022-12-15T07:13:37.612Z,33.15
2022-12-15T07:16:06.255Z,30.58
2022-12-15T07:18:32.897Z,29.00
2022-12-15T07:21:07.691Z,31.38
2022-12-15T07:23:53.203Z,28.10
2022-12-15T07:26:20.795Z,32.42
2022-12-15T07:28:47.358Z,31.55
2022-12-15T07:31:13.977Z,30.77
2022-12-15T07:33:40.611Z,33.03
2022-12-15T07:36:08.337Z,28.67
2022-12-15T07:38:35.356Z,24.17
2022-12-15T07:41:04.364Z,29.90
2022-12-15T07:43:31.679Z,27.33
2022-12-15T07:45:58.804Z,31.95
2022-12-15T07:48:25.709Z,29.88
2022-12-15T07:51:02.903Z,30.75
2022-12-15T07:53:34.211Z,31.58
2022-12-15T07:56:10.066Z,32.63
2022-12-15T07:58:38.017Z,32.10
2022-12-15T08:01:07.292Z,32.88
2022-12-15T08:03:35.047Z,31.15
2022-12-15T08:06:06.119Z,33.45
2022-12-15T08:11:11.062Z,29.05
2022-12-15T08:14:02.018Z,30.55
2022-12-15T08:16:25.326Z,30.98
2022-12-15T08:18:57.349Z,27.40
2022-12-15T08:21:24.071Z,27.77
2022-12-15T08:23:50.876Z,31.33
2022-12-15T08:26:18.731Z,33.50
2022-12-15T08:28:46.020Z,32.70
2022-12-15T08:31:18.107Z,32.65
2022-12-15T08:33:45.619Z,32.95
2022-12-15T08:36:13.771Z,34.92
2022-12-15T08:38:40.913Z,35.80
2022-12-15T08:41:16.125Z,32.40
2022-12-15T08:43:49.797Z,30.85
2022-12-15T08:46:21.588Z,35.58
2022-12-15T08:48:48.854Z,29.80
2022-12-15T08:51:16.187Z,34.67
2022-12-15T08:53:43.099Z,36.28
2022-12-15T08:56:12.374Z,38.22
2022-12-15T08:58:39.505Z,34.65
2022-12-15T09:01:08.083Z,35.78
2022-12-15T09:03:35.841Z,30.50
2022-12-15T09:06:07.816Z,31.30
2022-12-15T09:08:34.859Z,30.85
2022-12-15T09:11:02.413Z,34.55
2022-12-15T09:13:29.678Z,33.58
2022-12-15T09:16:10.789Z,33.25
2022-12-15T09:18:38.967Z,33.08
2022-12-15T09:21:07.320Z,26.92
2022-12-15T09:23:35.638Z,35.70
2022-12-15T09:26:04.659Z,22.63
2022-12-15T09:28:32.235Z,34.72
2022-12-15T09:31:03.577Z,26.95
2022-12-15T09:33:30.720Z,33.10
2022-12-15T09:35:57.628Z,35.30
2022-12-15T09:38:24.222Z,35.78
2022-12-15T09:40:50.879Z,34.58
2022-12-15T09:43:34.490Z,34.42
2022-12-15T09:46:08.626Z,34.20
2022-12-15T09:48:40.036Z,28.85
2022-12-15T09:51:09.212Z,34.58
2022-12-15T09:56:28.496Z,33.83
2022-12-15T09:59:05.030Z,31.45
2022-12-15T10:01:37.955Z,32.50
2022-12-15T10:04:12.132Z,30.67
2022-12-15T10:06:50.574Z,35.97
2022-12-15T10:09:22.846Z,32.83
2022-12-15T10:11:56.984Z,32.28
2022-12-15T10:14:26.966Z,33.65
2022-12-15T10:17:02.418Z,31.63
2022-12-15T10:19:38.241Z,31.98
2022-12-15T10:22:04.949Z,34.65
2022-12-15T10:25:07.931Z,34.85
2022-12-15T10:28:03.697Z,34.25
2022-12-15T10:30:30.757Z,31.90
2022-12-15T10:33:04.421Z,32.13
2022-12-15T10:35:33.377Z,30.85
2022-12-15T10:38:03.657Z,32.38
2022-12-15T10:40:42.476Z,24.92
2022-12-15T10:43:34.703Z,32.17
2022-12-15T10:46:14.067Z,30.33
2022-12-15T10:48:54.820Z,30.77
2022-12-15T10:51:37.544Z,33.65
2022-12-15T10:54:10.228Z,29.10
2022-12-15T10:56:48.460Z,30.92
2022-12-15T10:59:33.859Z,33.90
2022-12-15T11:02:27.122Z,33.30
2022-12-15T11:05:15.587Z,31.02
2022-12-15T11:07:47.843Z,31.13
2022-12-15T11:10:26.738Z,31.98
2022-12-15T11:13:00.696Z,34.05
2022-12-15T11:15:45.594Z,36.00
2022-12-15T11:18:34.843Z,33.45
2022-12-15T11:21:12.576Z,33.22
2022-12-15T11:23:55.274Z,33.17
2022-12-15T11:26:40.579Z,30.25
2022-12-15T11:29:24.245Z,33.10
2022-12-15T11:31:52.245Z,33.13
2022-12-15T11:34:25.161Z,32.80
2022-12-15T11:37:32.450Z,31.50
2022-12-15T11:40:27.508Z,30.08
2022-12-15T11:43:16.548Z,29.40
2022-12-15T11:45:52.167Z,28.08
2022-12-15T11:48:22.912Z,29.30
2022-12-15T11:50:52.958Z,29.95
2022-12-15T11:53:42.812Z,29.57
2022-12-15T11:56:35.712Z,29.10
2022-12-15T11:59:16.119Z,29.45
2022-12-15T12:02:02.993Z,27.10
2022-12-15T12:04:47.258Z,29.27
2022-12-15T12:07:42.601Z,27.88
2022-12-15T12:10:23.468Z,28.40
2022-12-15T12:13:05.469Z,27.88
2022-12-15T12:15:50.647Z,29.98
2022-12-15T12:18:25.279Z,27.70
2022-12-15T12:21:03.912Z,27.00
2022-12-15T12:23:42.715Z,27.33
2022-12-15T12:26:26.542Z,25.65
2022-12-15T12:28:58.161Z,26.58
2022-12-15T12:31:41.280Z,25.25
2022-12-15T12:34:14.514Z,25.50
2022-12-15T12:36:43.938Z,26.23
2022-12-15T12:39:18.109Z,29.40
2022-12-15T12:42:06.584Z,28.65
2022-12-15T12:44:39.271Z,26.60
2022-12-15T12:47:27.261Z,27.60
2022-12-15T12:50:25.967Z,29.67
2022-12-15T12:52:54.686Z,29.88
2022-12-15T12:55:40.908Z,29.25
2022-12-15T12:58:30.008Z,25.42
2022-12-15T13:01:11.173Z,27.90
2022-12-15T13:03:42.535Z,28.27
2022-12-15T13:06:50.895Z,28.02
2022-12-15T13:09:17.291Z,26.13
2022-12-15T13:11:51.174Z,25.58
2022-12-15T13:14:35.059Z,29.50
2022-12-15T13:17:26.368Z,26.75
2022-12-15T13:19:56.602Z,25.92
2022-12-15T13:22:37.180Z,28.13
2022-12-15T13:25:32.192Z,26.15
2022-12-15T13:28:00.660Z,28.13
2022-12-15T13:30:27.340Z,24.73
2022-12-15T13:32:55.218Z,27.35
2022-12-15T13:35:25.668Z,26.95
2022-12-15T13:38:02.869Z,24.45
2022-12-15T13:40:36.449Z,25.20
2022-12-15T13:43:05.945Z,26.77
2022-12-15T13:45:56.204Z,27.85
2022-12-15T13:48:38.925Z,28.13
2022-12-15T13:51:33.079Z,26.63
2022-12-15T13:54:04.191Z,27.30
2022-12-15T13:57:06.267Z,26.40
2022-12-15T13:59:52.201Z,27.88
2022-12-15T14:02:36.235Z,25.70
2022-12-15T14:05:17.266Z,27.30
2022-12-15T14:10:34.638Z,27.60
2022-12-15T14:13:15.567Z,28.02
2022-12-15T14:15:46.127Z,25.10
2022-12-15T14:18:35.280Z,26.63
2022-12-15T14:21:07.265Z,28.38
2022-12-15T14:23:48.656Z,27.50
2022-12-15T14:26:30.944Z,27.02
2022-12-15T14:29:02.718Z,25.02
2022-12-15T14:31:30.105Z,27.10
2022-12-15T14:34:05.827Z,28.27
2022-12-15T14:36:32.833Z,28.77
2022-12-15T14:39:01.513Z,27.48
2022-12-15T14:41:30.204Z,29.42
2022-12-15T14:44:37.000Z,28.40
2022-12-15T14:46:48.080Z,29.80
2022-12-15T14:49:20.353Z,29.20
2022-12-15T14:51:48.983Z,29.05
2022-12-15T14:54:31.684Z,38.47
2022-12-15T14:57:13.685Z,28.27
2022-12-15T14:59:43.451Z,32.45
2022-12-15T15:02:29.006Z,32.58
2022-12-15T15:05:07.849Z,31.63
2022-12-15T15:07:35.902Z,28.90
2022-12-15T15:10:04.058Z,36.72
2022-12-15T15:12:47.158Z,31.15
2022-12-15T15:15:21.506Z,34.50
2022-12-15T15:17:53.027Z,26.52
2022-12-15T15:20:28.670Z,32.00
2022-12-15T15:23:07.258Z,32.15
2022-12-15T15:25:39.411Z,32.28
2022-12-15T15:28:15.515Z,30.30
2022-12-15T15:30:50.443Z,28.70
2022-12-15T15:33:17.905Z,32.20
2022-12-15T15:35:45.371Z,28.52
2022-12-15T15:38:39.967Z,31.80
2022-12-15T15:41:21.098Z,30.08
2022-12-15T15:43:47.682Z,30.35
2022-12-15T15:46:16.418Z,29.83
2022-12-15T15:49:03.660Z,30.10
2022-12-15T15:51:30.751Z,32.58
2022-12-15T15:54:03.081Z,31.05
2022-12-15T15:56:30.955Z,34.15
2022-12-15T15:58:59.159Z,31.58
2022-12-15T16:01:25.825Z,30.42
2022-12-15T16:03:52.524Z,33.25
2022-12-15T16:06:21.075Z,32.38
2022-12-15T16:08:51.438Z,32.55
2022-12-15T16:11:18.086Z,33.78
2022-12-15T16:13:45.063Z,33.10
2022-12-15T16:16:24.357Z,33.75
2022-12-15T16:18:51.189Z,33.63
2022-12-15T16:21:30.597Z,31.83
2022-12-15T16:23:57.848Z,35.28
2022-12-15T16:26:29.552Z,31.88
2022-12-15T16:28:56.258Z,36.70
2022-12-15T16:31:41.269Z,34.58
2022-12-15T16:34:08.361Z,34.95
2022-12-15T16:36:35.274Z,33.35
2022-12-15T16:39:02.119Z,32.80
2022-12-15T16:41:28.808Z,33.70
2022-12-15T16:43:55.323Z,33.28
2022-12-15T16:46:22.032Z,35.58
2022-12-15T16:48:48.889Z,37.00
2022-12-15T16:51:27.868Z,35.00
2022-12-15T16:53:54.367Z,35.45
2022-12-15T16:56:21.008Z,35.85
2022-12-15T16:58:49.010Z,36.25
2022-12-15T17:01:19.557Z,37.13
2022-12-15T17:03:47.226Z,37.65
2022-12-15T17:06:15.548Z,35.53
2022-12-15T17:08:44.719Z,36.50
2022-12-15T17:11:19.812Z,34.20
2022-12-15T17:13:50.918Z,34.90
2022-12-15T17:16:18.794Z,32.65
2022-12-15T17:18:45.443Z,33.90
2022-12-15T17:21:26.542Z,33.58
2022-12-15T17:23:56.149Z,33.85
2022-12-15T17:26:30.808Z,33.58
2022-12-15T17:29:00.950Z,33.05
2022-12-15T17:31:33.133Z,33.17
2022-12-15T17:34:03.716Z,33.13
2022-12-15T17:36:30.263Z,32.53
2022-12-15T17:38:59.453Z,33.67
2022-12-15T17:41:57.982Z,34.67
2022-12-15T17:44:35.684Z,36.63
2022-12-15T17:47:05.677Z,35.57
2022-12-15T17:49:36.048Z,35.97
2022-12-15T17:52:17.435Z,36.60
2022-12-15T17:54:44.116Z,34.83
2022-12-15T17:57:11.654Z,36.97
2022-12-15T17:59:38.168Z,37.72
2022-12-15T18:02:04.864Z,36.55
2022-12-15T18:04:31.428Z,37.38
2022-12-15T18:07:02.040Z,38.30
2022-12-15T18:09:29.870Z,36.38
2022-12-15T18:11:56.386Z,35.88
2022-12-15T18:14:23.068Z,38.55
2022-12-15T18:16:49.762Z,39.13
2022-12-15T18:19:16.370Z,38.08
2022-12-15T18:21:42.950Z,40.80
2022-12-15T18:24:13.965Z,36.20
2022-12-15T18:26:40.527Z,39.35
2022-12-15T18:29:17.560Z,37.83
2022-12-15T18:31:45.985Z,39.00
2022-12-15T18:34:14.116Z,39.50
2022-12-15T18:36:41.048Z,41.17
2022-12-15T18:39:17.331Z,39.80
2022-12-15T18:41:43.973Z,40.30
2022-12-15T18:44:27.685Z,37.90
2022-12-15T18:46:55.169Z,35.78
2022-12-15T18:49:22.733Z,37.95
2022-12-15T18:51:49.494Z,38.08
2022-12-15T18:54:21.941Z,33.67
2022-12-15T18:56:48.662Z,34.55
2022-12-15T18:59:17.344Z,36.00
2022-12-15T19:01:45.725Z,38.78
2022-12-15T19:04:12.397Z,38.53
2022-12-15T19:06:40.459Z,39.80
2022-12-15T19:09:23.164Z,39.88
2022-12-15T19:12:08.869Z,39.90
2022-12-15T19:14:41.252Z,40.70
2022-12-15T19:17:29.396Z,36.83
2022-12-15T19:20:14.397Z,37.38
2022-12-15T19:22:41.193Z,39.20
2022-12-15T19:25:11.029Z,37.60
2022-12-15T19:27:37.553Z,36.33
2022-12-15T19:30:15.393Z,38.85
2022-12-15T19:32:41.933Z,37.08
2022-12-15T19:35:08.935Z,37.95
2022-12-15T19:37:36.999Z,36.97
2022-12-15T19:40:03.912Z,37.70
2022-12-15T19:42:33.415Z,39.38
2022-12-15T19:45:01.432Z,35.60
2022-12-15T19:47:28.231Z,38.03
2022-12-15T19:49:55.120Z,35.80
2022-12-15T19:52:21.728Z,36.17
2022-12-15T19:54:51.837Z,37.58
2022-12-15T19:57:19.031Z,36.95
2022-12-15T19:59:46.652Z,34.75
2022-12-15T20:02:20.389Z,36.47
2022-12-15T20:04:48.070Z,34.25
2022-12-15T20:07:21.357Z,36.72
2022-12-15T20:09:47.891Z,36.03
2022-12-15T20:12:18.450Z,37.50
2022-12-15T20:14:45.911Z,37.80
2022-12-15T20:17:12.455Z,35.17
2022-12-15T20:19:38.997Z,36.80
2022-12-15T20:22:05.628Z,37.25
2022-12-15T20:24:32.997Z,35.92
2022-12-15T20:26:59.538Z,36.08
2022-12-15T20:29:30.781Z,36.33
2022-12-15T20:31:58.619Z,39.25
2022-12-15T20:34:25.651Z,37.63
2022-12-15T20:36:52.185Z,38.30
2022-12-15T20:39:27.088Z,40.20
2022-12-15T20:41:54.008Z,37.53
2022-12-15T20:44:20.808Z,39.45
2022-12-15T20:46:47.509Z,37.65
2022-12-15T20:49:20.181Z,39.08
2022-12-15T20:51:47.429Z,40.15
2022-12-15T20:54:17.282Z,38.75
2022-12-15T20:56:44.359Z,32.43
2022-12-15T20:59:11.451Z,40.78
2022-12-15T21:01:41.867Z,42.50
2022-12-15T21:04:27.195Z,41.50
2022-12-15T21:06:55.326Z,41.03
2022-12-15T21:09:22.414Z,40.17
2022-12-15T21:11:51.675Z,41.83
2022-12-15T21:14:23.046Z,42.40
2022-12-15T21:16:50.140Z,40.60
2022-12-15T21:19:21.653Z,38.55
2022-12-15T21:21:51.954Z,42.17
2022-12-15T21:24:24.830Z,39.03
2022-12-15T21:26:52.029Z,37.63
2022-12-15T21:29:21.633Z,41.72
2022-12-15T21:31:48.402Z,39.63
2022-12-15T21:34:15.397Z,38.40
2022-12-15T21:36:43.170Z,40.40
2022-12-15T21:39:13.219Z,41.00
2022-12-15T21:41:43.217Z,40.47
2022-12-15T21:44:13.007Z,38.00
2022-12-15T21:46:39.514Z,38.08
2022-12-15T21:49:15.058Z,38.22
2022-12-15T21:51:43.961Z,38.92
2022-12-15T21:54:15.736Z,36.50
2022-12-15T21:56:42.309Z,38.42
2022-12-15T21:59:18.708Z,39.75
2022-12-15T22:01:45.974Z,37.05
2022-12-15T22:04:33.579Z,36.92
2022-12-15T22:07:00.123Z,36.97
2022-12-15T22:09:26.941Z,36.67
2022-12-15T22:11:54.753Z,38.60
2022-12-15T22:14:30.126Z,37.45
2022-12-15T22:16:57.457Z,37.15
2022-12-15T22:19:24.343Z,39.13
2022-12-15T22:21:57.042Z,35.83
2022-12-15T22:24:23.647Z,34.20
2022-12-15T22:26:50.425Z,38.42
2022-12-15T22:29:21.637Z,35.60
2022-12-15T22:31:49.665Z,38.58
2022-12-15T22:34:20.974Z,36.75
2022-12-15T22:36:48.188Z,36.95
2022-12-15T22:39:15.097Z,38.72
2022-12-15T22:41:44.190Z,36.60
2022-12-15T22:44:17.319Z,37.40
2022-12-15T22:46:44.274Z,37.50
2022-12-15T22:49:16.259Z,35.58
2022-12-15T22:51:42.752Z,36.33
2022-12-15T22:54:20.801Z,37.65
2022-12-15T22:56:49.802Z,36.58
2022-12-15T22:59:43.933Z,37.20
2022-12-15T23:02:10.890Z,36.03
2022-12-15T23:04:37.466Z,36.35
2022-12-15T23:07:05.616Z,36.35
2022-12-15T23:09:32.226Z,38.30
2022-12-15T23:12:01.846Z,37.15
2022-12-15T23:14:47.773Z,37.35
2022-12-15T23:17:14.451Z,36.17
2022-12-15T23:19:45.201Z,36.10
2022-12-15T23:24:39.020Z,35.50
2022-12-15T23:27:10.194Z,37.90
2022-12-15T23:29:37.515Z,39.40
2022-12-15T23:32:05.473Z,38.92
2022-12-15T23:34:32.329Z,37.97
2022-12-15T23:37:02.513Z,40.30
2022-12-15T23:39:29.156Z,37.28
2022-12-15T23:41:55.824Z,37.85
2022-12-15T23:44:22.937Z,36.92
2022-12-15T23:46:50.191Z,37.08
2022-12-15T23:49:17.220Z,36.33
2022-12-15T23:51:43.779Z,36.60
2022-12-15T23:54:11.996Z,36.78
2022-12-15T23:56:39.135Z,37.63
2022-12-15T23:59:06.400Z,37.55
